Terminal Aerodrome Forecast
Issued by NWS

Home | Current Version | Previous Version | Text Only | Print | Product List | Glossary On
Versions: 1 2 3 4 5 6 7 8 9 10 11 12 13 14 15 16 17 18 19 20 21 22 23 24 25 26 27 28 29 30 31 32 33 34 35 36
000
FTUS41 KPBZ 231100
TAFZZV
TAF
KZZV 231120Z 2312/2412 00000KT 1/2SM FG VV002
     FM231400 06005KT 3SM HZ BKN015
     FM231600 05005KT P6SM BKN040
     FM240300 VRB03KT 3SM BR SCT001
     FM240600 VRB02KT 1/2SM FG VV001=

USA.gov is the U.S. government's official web portal to all federal, state and local government web resources and services.